createdAt,value
2018-03-21T00:00:05.393Z,1.30
2018-03-21T00:02:34.195Z,1.30
2018-03-21T00:05:06.059Z,1.30
2018-03-21T00:07:34.331Z,1.30
2018-03-21T00:10:02.652Z,1.40
2018-03-21T00:12:30.952Z,1.30
2018-03-21T00:14:59.203Z,1.30
2018-03-21T00:17:27.573Z,1.20
2018-03-21T00:19:55.818Z,1.20
2018-03-21T00:22:24.074Z,1.10
2018-03-21T00:24:53.119Z,1.00
2018-03-21T00:27:21.376Z,1.00
2018-03-21T00:29:50.422Z,0.90
2018-03-21T00:32:18.699Z,0.90
2018-03-21T00:34:46.979Z,0.90
2018-03-21T00:37:15.226Z,0.80
2018-03-21T00:39:43.515Z,0.80
2018-03-21T00:42:11.762Z,0.80
2018-03-21T00:44:40.815Z,0.80
2018-03-21T00:47:09.067Z,0.70
2018-03-21T00:49:38.294Z,0.80
2018-03-21T00:52:06.551Z,0.80
2018-03-21T00:54:34.823Z,0.70
2018-03-21T00:57:03.075Z,0.70
2018-03-21T00:59:32.962Z,0.60
2018-03-21T01:02:01.281Z,0.50
2018-03-21T01:04:29.502Z,0.50
2018-03-21T01:06:57.768Z,0.60
2018-03-21T01:09:26.011Z,0.50
2018-03-21T01:11:54.387Z,0.50
2018-03-21T01:14:22.634Z,0.50
2018-03-21T01:16:50.963Z,0.50
2018-03-21T01:19:19.316Z,0.50
2018-03-21T01:21:47.574Z,0.50
2018-03-21T01:24:15.842Z,0.50
2018-03-21T01:26:44.108Z,0.50
2018-03-21T01:29:13.122Z,0.40
2018-03-21T01:31:42.158Z,0.40
2018-03-21T01:34:10.403Z,0.40
2018-03-21T01:36:38.659Z,0.40
2018-03-21T01:39:06.908Z,0.40
2018-03-21T01:41:36.078Z,0.40
2018-03-21T01:44:04.326Z,0.40
2018-03-21T01:46:33.390Z,0.30
2018-03-21T01:49:01.644Z,0.30
2018-03-21T01:51:29.940Z,0.20
2018-03-21T01:53:58.229Z,0.20
2018-03-21T01:56:26.514Z,0.10
2018-03-21T01:58:54.783Z,0.10
2018-03-21T02:01:23.033Z,0.10
2018-03-21T02:03:51.347Z,0.10
2018-03-21T02:06:19.632Z,0.10
2018-03-21T02:08:47.910Z,0.10
2018-03-21T02:11:16.182Z,0.00
2018-03-21T02:13:44.470Z,0.10
2018-03-21T02:16:12.722Z,0.00
2018-03-21T02:18:41.010Z,0.00
2018-03-21T02:21:09.256Z,0.00
2018-03-21T02:23:37.507Z,0.00
2018-03-21T02:26:05.762Z,0.00
2018-03-21T02:28:34.087Z,0.00
2018-03-21T02:31:02.346Z,0.00
2018-03-21T02:33:30.606Z,0.00
2018-03-21T02:35:58.887Z,0.00
2018-03-21T02:38:27.363Z,-0.10
2018-03-21T02:40:56.359Z,-0.10
2018-03-21T02:43:24.626Z,-0.10
2018-03-21T02:45:53.657Z,0.00
2018-03-21T02:48:21.912Z,-0.10
2018-03-21T02:50:50.187Z,-0.10
2018-03-21T02:53:19.198Z,-0.10
2018-03-21T02:55:47.507Z,-0.10
2018-03-21T02:58:15.754Z,-0.10
2018-03-21T03:00:44.014Z,-0.10
2018-03-21T03:03:13.066Z,-0.10
2018-03-21T03:05:41.340Z,-0.20
2018-03-21T03:08:09.601Z,-0.20
2018-03-21T03:10:37.945Z,-0.20
2018-03-21T03:13:06.280Z,-0.20
2018-03-21T03:15:34.555Z,-0.10
2018-03-21T03:18:02.823Z,-0.10
2018-03-21T03:20:31.139Z,0.00
2018-03-21T03:22:59.400Z,-0.10
2018-03-21T03:25:27.661Z,-0.10
2018-03-21T03:27:55.932Z,-0.20
2018-03-21T03:30:25.075Z,-0.40
2018-03-21T03:32:53.362Z,-0.40
2018-03-21T03:35:21.654Z,-0.50
2018-03-21T03:37:50.018Z,-0.50
2018-03-21T03:40:18.312Z,-0.60
2018-03-21T03:42:46.667Z,-0.50
2018-03-21T03:45:14.926Z,-0.50
2018-03-21T03:47:43.234Z,-0.60
2018-03-21T03:50:11.490Z,-0.60
2018-03-21T03:52:40.527Z,-0.60
2018-03-21T03:55:08.770Z,-0.70
2018-03-21T03:57:37.919Z,-0.60
2018-03-21T04:00:06.185Z,-0.60
2018-03-21T04:02:34.467Z,-0.60
2018-03-21T04:05:02.776Z,-0.70
2018-03-21T04:07:31.050Z,-0.70
2018-03-21T04:09:59.322Z,-0.80
2018-03-21T04:12:28.373Z,-0.80
2018-03-21T04:14:57.430Z,-0.80
2018-03-21T04:17:25.694Z,-0.80
2018-03-21T04:19:53.994Z,-0.90
2018-03-21T04:22:22.262Z,-0.90
2018-03-21T04:24:50.543Z,-0.90
2018-03-21T04:27:18.822Z,-1.00
2018-03-21T04:29:47.198Z,-1.00
2018-03-21T04:32:15.450Z,-1.00
2018-03-21T04:34:43.728Z,-1.00
2018-03-21T04:37:11.986Z,-1.00
2018-03-21T04:39:41.018Z,-0.90
2018-03-21T04:42:09.274Z,-0.90
2018-03-21T04:44:38.367Z,-1.00
2018-03-21T04:47:08.110Z,-1.00
2018-03-21T04:49:36.374Z,-1.00
2018-03-21T04:52:05.391Z,-0.90
2018-03-21T04:54:33.662Z,-0.90
2018-03-21T04:57:02.722Z,-0.90
2018-03-21T04:59:31.056Z,-1.00
2018-03-21T05:02:00.194Z,-1.00
2018-03-21T05:04:28.581Z,-1.10
2018-03-21T05:06:57.225Z,-1.10
2018-03-21T05:09:25.555Z,-1.10
2018-03-21T05:11:53.819Z,-1.10
2018-03-21T05:14:22.085Z,-1.10
2018-03-21T05:16:50.333Z,-1.10
2018-03-21T05:19:19.468Z,-1.10
2018-03-21T05:21:47.719Z,-1.10
2018-03-21T05:24:16.787Z,-1.10
2018-03-21T05:26:45.028Z,-1.10
2018-03-21T05:29:13.259Z,-1.00
2018-03-21T05:31:41.518Z,-1.00
2018-03-21T05:34:09.771Z,-1.00
2018-03-21T05:36:38.113Z,-1.00
2018-03-21T05:39:08.398Z,-1.00
2018-03-21T05:41:36.854Z,-1.10
2018-03-21T05:44:05.111Z,-1.10
2018-03-21T05:46:34.596Z,-1.10
2018-03-21T05:49:02.892Z,-1.10
2018-03-21T05:51:32.179Z,-1.00
2018-03-21T05:54:00.427Z,-1.00
2018-03-21T05:56:30.573Z,-1.00
2018-03-21T05:58:58.831Z,-1.00
2018-03-21T06:01:27.112Z,-0.90
2018-03-21T06:03:55.434Z,-0.90
2018-03-21T06:06:23.731Z,-0.80
2018-03-21T06:08:52.310Z,-0.80
2018-03-21T06:11:20.591Z,-0.80
2018-03-21T06:13:48.865Z,-0.70
2018-03-21T06:16:17.142Z,-0.70
2018-03-21T06:18:45.518Z,-0.70
2018-03-21T06:21:13.898Z,-0.70
2018-03-21T06:23:42.150Z,-0.50
2018-03-21T06:26:10.404Z,-0.30
2018-03-21T06:28:39.491Z,0.40
2018-03-21T06:31:07.740Z,0.30
2018-03-21T06:33:35.997Z,1.00
2018-03-21T06:36:04.259Z,1.80
2018-03-21T06:38:33.538Z,3.40
2018-03-21T06:41:02.133Z,3.40
2018-03-21T06:43:31.637Z,4.90
2018-03-21T06:46:00.296Z,4.90
2018-03-21T06:48:29.644Z,6.00
2018-03-21T06:50:58.507Z,6.00
2018-03-21T06:53:27.221Z,6.50
2018-03-21T06:55:55.628Z,6.90
2018-03-21T06:58:24.804Z,7.20
2018-03-21T07:00:54.134Z,7.80
2018-03-21T07:03:22.701Z,7.80
2018-03-21T07:05:51.291Z,8.10
2018-03-21T07:08:20.444Z,8.30
2018-03-21T07:10:48.706Z,8.30
2018-03-21T07:13:17.727Z,8.50
2018-03-21T07:15:57.826Z,8.50
2018-03-21T07:18:26.067Z,8.50
2018-03-21T07:20:54.327Z,8.70
2018-03-21T07:23:22.634Z,8.90
2018-03-21T07:25:50.928Z,9.20
2018-03-21T07:28:19.168Z,9.60
2018-03-21T07:30:48.833Z,10.80
2018-03-21T07:33:17.875Z,11.60
2018-03-21T07:35:46.901Z,12.50
2018-03-21T07:38:15.148Z,12.50
2018-03-21T07:40:44.165Z,14.20
2018-03-21T07:43:13.169Z,15.10
2018-03-21T07:45:41.430Z,15.00
2018-03-21T07:48:10.453Z,16.40
2018-03-21T07:50:38.710Z,16.40
2018-03-21T07:53:07.718Z,17.30
2018-03-21T07:55:36.765Z,17.30
2018-03-21T07:58:05.003Z,17.30
2018-03-21T08:00:33.357Z,17.20
2018-03-21T08:03:01.618Z,17.00
2018-03-21T08:05:29.862Z,17.00
2018-03-21T08:07:58.118Z,16.60
2018-03-21T08:10:27.156Z,15.90
2018-03-21T08:12:55.418Z,15.90
2018-03-21T08:15:23.675Z,15.40
2018-03-21T08:17:51.938Z,15.10
2018-03-21T08:20:21.716Z,14.80
2018-03-21T08:22:49.961Z,14.80
2018-03-21T08:25:18.958Z,14.50
2018-03-21T08:27:47.987Z,14.30
2018-03-21T08:30:16.242Z,14.30
2018-03-21T08:32:45.371Z,14.40
2018-03-21T08:35:13.635Z,14.40
2018-03-21T08:37:41.906Z,14.50
2018-03-21T08:40:10.942Z,14.50
2018-03-21T08:42:39.240Z,14.50
2018-03-21T08:45:07.492Z,14.40
2018-03-21T08:47:35.750Z,14.40
2018-03-21T08:50:06.292Z,13.60
2018-03-21T08:52:34.560Z,13.60
2018-03-21T08:55:03.573Z,13.00
2018-03-21T08:57:31.839Z,13.00
2018-03-21T09:00:00.861Z,11.80
2018-03-21T09:02:29.109Z,11.70
2018-03-21T09:04:58.494Z,11.60
2018-03-21T09:07:26.761Z,11.60
2018-03-21T09:09:55.006Z,11.50
2018-03-21T09:12:23.263Z,11.40
2018-03-21T09:14:52.289Z,11.50
2018-03-21T09:17:20.534Z,11.50
2018-03-21T09:19:48.798Z,11.50
2018-03-21T09:22:17.074Z,11.40
2018-03-21T09:24:45.395Z,11.50
2018-03-21T09:27:14.409Z,11.70
2018-03-21T09:29:42.692Z,11.60
2018-03-21T09:32:10.951Z,11.60
2018-03-21T09:34:40.693Z,11.20
2018-03-21T09:37:08.940Z,11.20
2018-03-21T09:39:37.979Z,11.40
2018-03-21T09:42:06.251Z,11.40
2018-03-21T09:44:34.514Z,11.50
2018-03-21T09:47:03.525Z,11.80
2018-03-21T09:49:31.822Z,11.80
2018-03-21T09:52:00.070Z,12.00
2018-03-21T09:54:29.111Z,12.30
2018-03-21T09:56:57.359Z,12.20
2018-03-21T09:59:25.804Z,12.30
2018-03-21T10:01:54.044Z,12.30
2018-03-21T10:04:23.085Z,12.10
2018-03-21T10:06:51.339Z,12.10
2018-03-21T10:09:19.590Z,12.10
2018-03-21T10:11:47.846Z,12.20
2018-03-21T10:14:16.943Z,12.40
2018-03-21T10:16:45.175Z,12.40
2018-03-21T10:19:13.402Z,12.60
2018-03-21T10:21:42.495Z,12.50
2018-03-21T10:24:11.222Z,12.50
2018-03-21T10:26:39.485Z,12.30
2018-03-21T10:29:08.497Z,11.90
2018-03-21T10:31:37.536Z,11.70
2018-03-21T10:34:05.775Z,11.70
2018-03-21T10:36:34.047Z,11.70
2018-03-21T10:39:03.071Z,11.60
2018-03-21T10:41:31.335Z,11.60
2018-03-21T10:43:59.595Z,11.70
2018-03-21T10:46:28.659Z,12.00
2018-03-21T10:48:56.938Z,12.00
2018-03-21T10:51:25.174Z,12.10
2018-03-21T10:53:53.623Z,12.20
2018-03-21T10:56:21.851Z,12.20
2018-03-21T10:58:50.123Z,11.90
2018-03-21T11:01:24.959Z,12.40
2018-03-21T11:03:56.149Z,12.40
2018-03-21T11:06:24.383Z,12.50
2018-03-21T11:08:53.414Z,13.10
2018-03-21T11:11:21.664Z,13.10
2018-03-21T11:13:50.681Z,13.00
2018-03-21T11:16:18.923Z,13.00
2018-03-21T11:18:47.181Z,13.30
2018-03-21T11:21:15.420Z,13.40
2018-03-21T11:23:43.714Z,13.40
2018-03-21T11:26:11.948Z,13.70
2018-03-21T11:28:41.711Z,14.10
2018-03-21T11:31:09.968Z,14.10
2018-03-21T11:33:39.006Z,14.60
2018-03-21T11:36:07.250Z,14.60
2018-03-21T11:38:36.284Z,14.80
2018-03-21T11:41:04.586Z,14.80
2018-03-21T11:43:33.180Z,15.00
2018-03-21T11:46:01.475Z,15.30
2018-03-21T11:48:30.400Z,15.40
2018-03-21T11:50:58.960Z,15.60
2018-03-21T11:53:27.811Z,15.50
2018-03-21T11:55:56.333Z,15.20
2018-03-21T11:58:26.141Z,15.10
2018-03-21T12:00:54.429Z,15.10
2018-03-21T12:03:22.668Z,14.80
2018-03-21T12:05:51.015Z,14.80
2018-03-21T12:08:19.248Z,14.60
2018-03-21T12:10:47.530Z,14.30
2018-03-21T12:13:15.808Z,14.10
2018-03-21T12:15:44.081Z,14.00
2018-03-21T12:18:12.362Z,13.80
2018-03-21T12:20:40.664Z,13.70
2018-03-21T12:23:08.929Z,13.50
2018-03-21T12:25:37.245Z,13.30
2018-03-21T12:28:06.997Z,12.90
2018-03-21T12:30:35.282Z,12.90
2018-03-21T12:33:03.525Z,12.80
2018-03-21T12:35:32.888Z,12.60
2018-03-21T12:38:01.201Z,12.60
2018-03-21T12:40:29.439Z,12.60
2018-03-21T12:42:57.988Z,12.40
2018-03-21T12:45:26.231Z,12.10
2018-03-21T12:47:55.463Z,11.80
2018-03-21T12:50:23.728Z,11.50
2018-03-21T12:52:52.026Z,11.30
2018-03-21T12:55:21.091Z,11.30
2018-03-21T12:57:49.365Z,11.30
2018-03-21T13:00:17.665Z,11.20
2018-03-21T13:02:45.935Z,11.20
2018-03-21T13:05:14.219Z,11.30
2018-03-21T13:07:42.506Z,11.40
2018-03-21T13:10:10.751Z,11.40
2018-03-21T13:12:39.082Z,11.40
2018-03-21T13:15:07.323Z,11.20
2018-03-21T13:17:35.600Z,11.00
2018-03-21T13:20:03.874Z,11.00
2018-03-21T13:22:32.172Z,10.90
2018-03-21T13:25:00.413Z,10.90
2018-03-21T13:27:29.435Z,10.70
2018-03-21T13:29:57.749Z,10.70
2018-03-21T13:32:26.022Z,10.70
2018-03-21T13:34:55.118Z,10.90
2018-03-21T13:37:23.358Z,10.90
2018-03-21T13:39:51.652Z,11.10
2018-03-21T13:42:19.894Z,11.10
2018-03-21T13:44:48.158Z,11.10
2018-03-21T13:47:16.411Z,11.10
2018-03-21T13:49:44.667Z,11.20
2018-03-21T13:52:12.931Z,11.30
2018-03-21T13:54:41.954Z,11.30
2018-03-21T13:57:10.200Z,11.30
2018-03-21T13:59:39.261Z,11.10
2018-03-21T14:02:07.510Z,11.10
2018-03-21T14:04:35.834Z,11.30
2018-03-21T14:07:04.088Z,11.20
2018-03-21T14:09:32.406Z,11.10
2018-03-21T14:12:00.697Z,11.10
2018-03-21T14:14:28.941Z,11.00
2018-03-21T14:16:57.257Z,10.90
2018-03-21T14:19:26.304Z,10.70
2018-03-21T14:21:54.559Z,10.70
2018-03-21T14:24:23.562Z,10.30
2018-03-21T14:26:52.586Z,10.20
2018-03-21T14:29:20.833Z,10.20
2018-03-21T14:31:49.868Z,10.00
2018-03-21T14:34:18.125Z,10.00
2018-03-21T14:36:47.164Z,10.00
2018-03-21T14:39:15.415Z,9.90
2018-03-21T14:41:44.423Z,9.70
2018-03-21T14:44:12.672Z,9.70
2018-03-21T14:46:41.015Z,9.70
2018-03-21T14:49:09.321Z,9.60
2018-03-21T14:51:38.537Z,9.70
2018-03-21T14:54:08.652Z,9.70
2018-03-21T14:56:37.297Z,9.70
2018-03-21T14:59:06.051Z,9.60
2018-03-21T15:01:35.255Z,9.70
2018-03-21T15:04:03.577Z,9.70
2018-03-21T15:06:31.988Z,9.70
2018-03-21T15:09:00.238Z,9.70
2018-03-21T15:11:28.478Z,9.70
2018-03-21T15:13:57.504Z,9.60
2018-03-21T15:16:26.199Z,9.60
2018-03-21T15:18:54.497Z,9.50
2018-03-21T15:21:22.775Z,9.40
2018-03-21T15:23:51.057Z,9.40
2018-03-21T15:26:19.347Z,9.40
2018-03-21T15:28:47.631Z,9.30
2018-03-21T15:31:15.887Z,9.40
2018-03-21T15:33:44.899Z,9.50
2018-03-21T15:36:13.166Z,9.40
2018-03-21T15:38:41.427Z,9.40
2018-03-21T15:41:10.423Z,9.50
2018-03-21T15:43:39.478Z,9.60
2018-03-21T15:46:07.741Z,9.50
2018-03-21T15:48:35.985Z,9.60
2018-03-21T15:51:05.048Z,9.60
2018-03-21T15:53:33.323Z,9.60
2018-03-21T15:56:01.584Z,9.60
2018-03-21T15:58:29.837Z,9.60
2018-03-21T16:00:58.078Z,9.50
2018-03-21T16:03:26.348Z,9.50
2018-03-21T16:05:54.582Z,9.40
2018-03-21T16:08:22.833Z,9.40
2018-03-21T16:10:51.074Z,9.40
2018-03-21T16:13:19.355Z,9.40
2018-03-21T16:15:47.592Z,9.40
2018-03-21T16:18:15.834Z,9.40
2018-03-21T16:20:44.184Z,9.40
2018-03-21T16:23:12.410Z,9.40
2018-03-21T16:25:40.670Z,9.30
2018-03-21T16:28:08.965Z,9.30
2018-03-21T16:30:39.284Z,9.10
2018-03-21T16:33:07.554Z,9.10
2018-03-21T16:35:35.803Z,9.10
2018-03-21T16:38:04.050Z,9.10
2018-03-21T16:40:32.306Z,9.10
2018-03-21T16:43:00.550Z,9.00
2018-03-21T16:45:28.819Z,8.90
2018-03-21T16:47:57.067Z,8.70
2018-03-21T16:50:25.350Z,8.70
2018-03-21T16:52:53.598Z,8.70
2018-03-21T16:55:21.861Z,8.70
2018-03-21T16:57:50.143Z,8.60
2018-03-21T17:00:18.406Z,8.60
2018-03-21T17:02:46.678Z,8.60
2018-03-21T17:05:15.701Z,8.50
2018-03-21T17:07:43.995Z,8.50
2018-03-21T17:10:12.361Z,8.50
2018-03-21T17:12:40.643Z,8.40
2018-03-21T17:15:09.646Z,8.30
2018-03-21T17:17:37.975Z,8.30
2018-03-21T17:20:06.198Z,8.20
2018-03-21T17:22:34.457Z,8.20
2018-03-21T17:25:03.492Z,8.20
2018-03-21T17:27:31.770Z,8.10
2018-03-21T17:30:00.026Z,8.20
2018-03-21T17:32:29.063Z,7.90
2018-03-21T17:34:57.305Z,7.90
2018-03-21T17:37:26.344Z,7.70
2018-03-21T17:39:54.583Z,7.70
2018-03-21T17:42:23.615Z,7.70
2018-03-21T17:44:51.859Z,7.60
2018-03-21T17:47:20.428Z,7.60
2018-03-21T17:49:49.460Z,7.60
2018-03-21T17:52:18.784Z,7.60
2018-03-21T17:54:47.330Z,7.60
2018-03-21T17:57:15.687Z,7.60
2018-03-21T17:59:43.927Z,7.60
2018-03-21T18:02:12.174Z,7.50
2018-03-21T18:04:40.510Z,7.60
2018-03-21T18:07:08.924Z,7.60
2018-03-21T18:09:37.281Z,7.50
2018-03-21T18:12:05.541Z,7.40
2018-03-21T18:14:33.841Z,7.30
2018-03-21T18:17:02.112Z,7.10
2018-03-21T18:19:31.227Z,7.20
2018-03-21T18:21:59.527Z,7.10
2018-03-21T18:24:27.796Z,7.10
2018-03-21T18:26:56.140Z,7.10
2018-03-21T18:29:24.429Z,7.10
2018-03-21T18:31:52.677Z,7.10
2018-03-21T18:34:20.935Z,7.10
2018-03-21T18:36:49.219Z,7.00
2018-03-21T18:39:17.476Z,7.00
2018-03-21T18:41:45.727Z,6.90
2018-03-21T18:44:14.005Z,6.90
2018-03-21T18:46:43.018Z,6.80
2018-03-21T18:49:11.350Z,6.80
2018-03-21T18:51:39.588Z,6.80
2018-03-21T18:54:07.888Z,6.70
2018-03-21T18:56:36.164Z,6.70
2018-03-21T18:59:04.413Z,6.70
2018-03-21T19:01:32.699Z,6.70
2018-03-21T19:04:00.971Z,6.70
2018-03-21T19:06:29.983Z,6.60
2018-03-21T19:08:58.237Z,6.60
2018-03-21T19:11:27.285Z,6.50
2018-03-21T19:13:58.915Z,6.50
2018-03-21T19:16:27.188Z,6.50
2018-03-21T19:18:55.532Z,6.40
2018-03-21T19:21:23.882Z,6.40
2018-03-21T19:23:52.139Z,6.40
2018-03-21T19:26:20.414Z,6.30
2018-03-21T19:28:49.472Z,6.20
2018-03-21T19:31:17.743Z,6.20
2018-03-21T19:33:45.991Z,6.20
2018-03-21T19:36:14.260Z,6.20
2018-03-21T19:38:42.540Z,6.20
2018-03-21T19:41:11.669Z,6.10
2018-03-21T19:43:39.913Z,6.10
2018-03-21T19:46:08.946Z,6.00
2018-03-21T19:48:37.242Z,6.00
2018-03-21T19:51:05.512Z,6.00
2018-03-21T19:53:33.811Z,5.90
2018-03-21T19:56:02.067Z,5.80
2018-03-21T19:58:30.338Z,5.90
2018-03-21T20:00:58.592Z,5.80
2018-03-21T20:03:27.647Z,5.60
2018-03-21T20:05:55.894Z,5.60
2018-03-21T20:08:24.150Z,5.70
2018-03-21T20:10:53.284Z,5.60
2018-03-21T20:13:22.967Z,5.60
2018-03-21T20:15:51.981Z,5.60
2018-03-21T20:18:20.278Z,5.60
2018-03-21T20:20:48.539Z,5.50
2018-03-21T20:23:16.801Z,5.60
2018-03-21T20:25:45.816Z,5.40
2018-03-21T20:28:14.098Z,5.30
2018-03-21T20:30:42.927Z,5.40
2018-03-21T20:33:11.189Z,5.20
2018-03-21T20:35:39.454Z,5.20
2018-03-21T20:38:07.695Z,5.20
2018-03-21T20:40:36.039Z,5.10
2018-03-21T20:43:04.296Z,5.20
2018-03-21T20:45:33.322Z,5.20
2018-03-21T20:48:01.578Z,5.20
2018-03-21T20:50:30.414Z,5.30
2018-03-21T20:52:59.482Z,5.20
2018-03-21T20:55:27.728Z,5.20
2018-03-21T20:57:56.734Z,5.20
2018-03-21T21:00:25.784Z,5.10
2018-03-21T21:02:54.212Z,5.10
2018-03-21T21:05:23.323Z,5.10
2018-03-21T21:07:51.715Z,5.10
2018-03-21T21:10:20.045Z,5.00
2018-03-21T21:12:48.305Z,5.00
2018-03-21T21:15:16.576Z,5.00
2018-03-21T21:17:44.839Z,5.10
2018-03-21T21:20:13.105Z,5.10
2018-03-21T21:22:42.113Z,5.10
2018-03-21T21:25:10.383Z,5.10
2018-03-21T21:27:39.412Z,5.00
2018-03-21T21:30:07.703Z,5.00
2018-03-21T21:32:36.687Z,4.90
2018-03-21T21:35:04.953Z,4.90
2018-03-21T21:37:33.983Z,4.50
2018-03-21T21:40:02.258Z,4.50
2018-03-21T21:42:30.529Z,4.40
2018-03-21T21:44:58.822Z,4.30
2018-03-21T21:47:27.077Z,4.20
2018-03-21T21:49:55.381Z,4.20
2018-03-21T21:52:23.649Z,4.30
2018-03-21T21:54:51.900Z,4.40
2018-03-21T21:57:21.765Z,4.50
2018-03-21T21:59:50.026Z,4.50
2018-03-21T22:02:18.326Z,4.60
2018-03-21T22:04:46.584Z,4.60
2018-03-21T22:07:14.907Z,4.60
2018-03-21T22:09:43.157Z,4.60
2018-03-21T22:12:17.159Z,4.60
2018-03-21T22:14:45.462Z,4.60
2018-03-21T22:17:14.462Z,4.60
2018-03-21T22:19:42.722Z,4.60
2018-03-21T22:22:10.958Z,4.50
2018-03-21T22:24:39.314Z,4.40
2018-03-21T22:27:07.562Z,4.30
2018-03-21T22:29:35.826Z,4.30
2018-03-21T22:32:04.845Z,4.20
2018-03-21T22:34:33.125Z,4.20
2018-03-21T22:37:01.600Z,4.20
2018-03-21T22:39:29.939Z,4.30
2018-03-21T22:41:58.286Z,4.30
2018-03-21T22:44:26.545Z,4.20
2018-03-21T22:46:54.792Z,4.20
2018-03-21T22:49:23.206Z,4.20
2018-03-21T22:51:51.502Z,4.20
2018-03-21T22:54:19.763Z,4.20
2018-03-21T22:56:48.791Z,4.20
2018-03-21T22:59:17.056Z,4.20
2018-03-21T23:01:45.302Z,4.20
2018-03-21T23:04:14.375Z,4.20
2018-03-21T23:06:42.609Z,4.20
2018-03-21T23:09:10.866Z,4.10
2018-03-21T23:11:39.918Z,4.10
2018-03-21T23:14:08.190Z,4.10
2018-03-21T23:16:36.484Z,4.00
2018-03-21T23:19:04.758Z,4.00
2018-03-21T23:21:33.142Z,4.00
2018-03-21T23:24:01.446Z,3.90
2018-03-21T23:26:29.715Z,3.90
2018-03-21T23:28:57.987Z,3.90
2018-03-21T23:31:26.271Z,3.90
2018-03-21T23:33:54.548Z,3.80
2018-03-21T23:36:22.810Z,3.80
2018-03-21T23:38:51.064Z,3.80
2018-03-21T23:41:20.111Z,3.90
2018-03-21T23:43:48.392Z,3.90
2018-03-21T23:46:16.677Z,3.90
2018-03-21T23:48:44.924Z,3.80
2018-03-21T23:51:13.211Z,3.60
2018-03-21T23:53:41.502Z,3.50
2018-03-21T23:56:09.771Z,3.50
2018-03-21T23:58:38.031Z,3.40
